createdAt,value
2019-02-02T00:00:42.344Z,0
2019-02-02T00:01:42.315Z,0
2019-02-02T00:02:42.297Z,0
2019-02-02T00:03:42.062Z,0
2019-02-02T00:04:41.803Z,0
2019-02-02T00:05:42.229Z,0
2019-02-02T00:06:41.702Z,0
2019-02-02T00:07:42.192Z,0
2019-02-02T00:08:41.664Z,0
2019-02-02T00:09:42.148Z,0
2019-02-02T00:10:41.860Z,0
2019-02-02T00:11:42.350Z,0
2019-02-02T00:12:42.086Z,0
2019-02-02T00:13:42.040Z,0
2019-02-02T00:14:45.089Z,0
2019-02-02T00:15:41.746Z,0
2019-02-02T00:16:42.095Z,0
2019-02-02T00:17:41.701Z,0
2019-02-02T00:18:42.131Z,0
2019-02-02T00:19:41.909Z,0
2019-02-02T00:20:42.147Z,0
2019-02-02T00:21:42.109Z,0
2019-02-02T00:22:41.959Z,0
2019-02-02T00:23:41.463Z,0
2019-02-02T00:24:41.544Z,0
2019-02-02T00:25:41.522Z,0
2019-02-02T00:26:42.002Z,0
2019-02-02T00:27:48.168Z,0
2019-02-02T00:28:41.966Z,0
2019-02-02T00:29:41.688Z,0
2019-02-02T00:30:41.446Z,0
2019-02-02T00:31:41.632Z,0
2019-02-02T00:32:41.878Z,0
2019-02-02T00:33:41.602Z,0
2019-02-02T00:34:41.065Z,0
2019-02-02T00:35:41.562Z,0
2019-02-02T00:36:41.277Z,0
2019-02-02T00:37:41.503Z,0
2019-02-02T00:38:41.973Z,0
2019-02-02T00:39:41.717Z,0
2019-02-02T00:40:41.422Z,0
2019-02-02T00:41:41.676Z,0
2019-02-02T00:42:41.634Z,0
2019-02-02T00:43:43.466Z,0
2019-02-02T00:44:41.590Z,0
2019-02-02T00:45:41.069Z,0
2019-02-02T00:46:41.306Z,0
2019-02-02T00:47:41.014Z,0
2019-02-02T00:48:41.300Z,0
2019-02-02T00:49:41.227Z,0
2019-02-02T00:50:41.215Z,0
2019-02-02T00:51:41.189Z,0
2019-02-02T00:52:41.410Z,0
2019-02-02T00:53:41.143Z,0
2019-02-02T00:54:41.363Z,0
2019-02-02T00:55:41.105Z,0
2019-02-02T00:56:41.095Z,0
2019-02-02T00:57:52.080Z,0
2019-02-02T00:58:41.328Z,0
2019-02-02T00:59:41.007Z,0
2019-02-02T01:00:41.035Z,0
2019-02-02T01:01:40.954Z,0
2019-02-02T01:02:41.018Z,0
2019-02-02T01:03:41.157Z,0
2019-02-02T01:04:41.022Z,0
2019-02-02T01:05:40.617Z,0
2019-02-02T01:06:40.589Z,0
2019-02-02T01:07:40.841Z,0
2019-02-02T01:08:40.802Z,0
2019-02-02T01:09:41.029Z,0
2019-02-02T01:10:40.609Z,0
2019-02-02T01:11:40.727Z,0
2019-02-02T01:12:40.656Z,0
2019-02-02T01:13:40.423Z,0
2019-02-02T01:14:40.687Z,0
2019-02-02T01:15:40.640Z,0
2019-02-02T01:16:40.642Z,0
2019-02-02T01:17:40.594Z,0
2019-02-02T01:18:40.310Z,0
2019-02-02T01:19:40.800Z,0
2019-02-02T01:20:40.539Z,0
2019-02-02T01:21:40.244Z,0
2019-02-02T01:22:40.478Z,0
2019-02-02T01:23:40.198Z,0
2019-02-02T01:24:40.171Z,0
2019-02-02T01:25:40.423Z,0
2019-02-02T01:26:40.646Z,0
2019-02-02T01:27:40.364Z,0
2019-02-02T01:28:40.593Z,0
2019-02-02T01:29:39.870Z,0
2019-02-02T01:30:40.294Z,0
2019-02-02T01:31:39.761Z,0
2019-02-02T01:32:40.257Z,0
2019-02-02T01:33:40.498Z,0
2019-02-02T01:34:39.791Z,0
2019-02-02T01:35:39.931Z,0
2019-02-02T01:36:40.163Z,0
2019-02-02T01:37:40.134Z,0
2019-02-02T01:38:40.236Z,0
2019-02-02T01:39:40.093Z,0
2019-02-02T01:40:40.068Z,0
2019-02-02T01:41:39.809Z,0
2019-02-02T01:42:40.013Z,0
2019-02-02T01:43:39.748Z,0
2019-02-02T01:44:39.971Z,0
2019-02-02T01:45:39.722Z,0
2019-02-02T01:46:39.928Z,0
2019-02-02T01:47:39.656Z,0
2019-02-02T01:48:40.146Z,0
2019-02-02T01:49:40.063Z,0
2019-02-02T01:50:39.877Z,0
2019-02-02T01:51:40.067Z,0
2019-02-02T01:52:39.544Z,0
2019-02-02T01:53:40.025Z,0
2019-02-02T01:54:42.624Z,0
2019-02-02T01:55:39.470Z,0
2019-02-02T01:56:39.457Z,0
2019-02-02T01:57:39.682Z,0
2019-02-02T01:58:39.666Z,0
2019-02-02T01:59:39.379Z,0
2019-02-02T02:00:39.880Z,0
2019-02-02T02:01:41.413Z,0
2019-02-02T02:02:39.316Z,0
2019-02-02T02:03:39.081Z,0
2019-02-02T02:04:39.266Z,0
2019-02-02T02:05:39.778Z,0
2019-02-02T02:06:39.742Z,0
2019-02-02T02:07:39.670Z,0
2019-02-02T02:08:39.461Z,0
2019-02-02T02:09:39.427Z,0
2019-02-02T02:10:39.391Z,0
2019-02-02T02:11:39.128Z,0
2019-02-02T02:12:39.599Z,0
2019-02-02T02:13:39.327Z,0
2019-02-02T02:14:39.306Z,0
2019-02-02T02:15:39.270Z,0
2019-02-02T02:16:39.301Z,0
2019-02-02T02:17:38.983Z,0
2019-02-02T02:18:39.461Z,0
2019-02-02T02:19:39.212Z,0
2019-02-02T02:20:39.417Z,0
2019-02-02T02:21:38.634Z,0
2019-02-02T02:22:48.156Z,0
2019-02-02T02:23:39.350Z,0
2019-02-02T02:24:39.079Z,0
2019-02-02T02:25:39.178Z,0
2019-02-02T02:26:39.305Z,0
2019-02-02T02:27:38.884Z,0
2019-02-02T02:28:39.241Z,0
2019-02-02T02:29:38.713Z,0
2019-02-02T02:30:39.416Z,0
2019-02-02T02:31:38.728Z,0
2019-02-02T02:32:38.905Z,0
2019-02-02T02:33:38.669Z,0
2019-02-02T02:34:39.133Z,0
2019-02-02T02:35:38.831Z,0
2019-02-02T02:36:38.827Z,0
2019-02-02T02:37:38.684Z,0
2019-02-02T02:38:38.510Z,0
2019-02-02T02:39:38.483Z,0
2019-02-02T02:40:39.003Z,0
2019-02-02T02:41:38.946Z,0
2019-02-02T02:42:38.429Z,0
2019-02-02T02:43:38.648Z,0
2019-02-02T02:44:38.654Z,0
2019-02-02T02:45:38.924Z,0
2019-02-02T02:46:38.845Z,0
2019-02-02T02:47:38.562Z,0
2019-02-02T02:48:38.555Z,0
2019-02-02T02:49:38.540Z,0
2019-02-02T02:50:38.794Z,0
2019-02-02T02:51:38.471Z,0
2019-02-02T02:52:38.200Z,0
2019-02-02T02:53:38.533Z,0
2019-02-02T02:54:38.412Z,0
2019-02-02T02:55:38.869Z,0
2019-02-02T02:56:38.369Z,0
2019-02-02T02:57:38.598Z,0
2019-02-02T02:58:48.908Z,0
2019-02-02T02:59:38.593Z,0
2019-02-02T03:00:38.280Z,0
2019-02-02T03:01:38.270Z,0
2019-02-02T03:02:38.222Z,0
2019-02-02T03:03:38.477Z,0
2019-02-02T03:04:38.437Z,0
2019-02-02T03:05:38.426Z,0
2019-02-02T03:06:38.386Z,0
2019-02-02T03:07:38.391Z,0
2019-02-02T03:08:38.346Z,0
2019-02-02T03:09:37.850Z,0
2019-02-02T03:10:38.052Z,0
2019-02-02T03:11:37.760Z,0
2019-02-02T03:12:38.392Z,0
2019-02-02T03:13:37.725Z,0
2019-02-02T03:14:37.723Z,0
2019-02-02T03:15:38.194Z,0
2019-02-02T03:16:37.906Z,0
2019-02-02T03:17:37.896Z,0
2019-02-02T03:18:37.860Z,0
2019-02-02T03:19:37.585Z,0
2019-02-02T03:20:37.822Z,0
2019-02-02T03:21:37.554Z,0
2019-02-02T03:22:37.768Z,0
2019-02-02T03:23:37.772Z,0
2019-02-02T03:24:37.988Z,0
2019-02-02T03:25:37.955Z,0
2019-02-02T03:26:37.700Z,0
2019-02-02T03:27:38.125Z,0
2019-02-02T03:28:37.638Z,0
2019-02-02T03:29:37.638Z,0
2019-02-02T03:30:37.606Z,0
2019-02-02T03:31:38.140Z,0
2019-02-02T03:32:37.824Z,0
2019-02-02T03:33:37.644Z,0
2019-02-02T03:34:37.510Z,0
2019-02-02T03:35:37.232Z,0
2019-02-02T03:36:37.732Z,0
2019-02-02T03:37:37.694Z,0
2019-02-02T03:38:37.418Z,0
2019-02-02T03:39:37.646Z,0
2019-02-02T03:40:36.858Z,0
2019-02-02T03:41:37.098Z,0
2019-02-02T03:42:37.337Z,0
2019-02-02T03:43:37.048Z,0
2019-02-02T03:44:37.293Z,0
2019-02-02T03:45:40.454Z,0
2019-02-02T03:46:36.751Z,0
2019-02-02T03:47:37.465Z,0
2019-02-02T03:48:37.187Z,0
2019-02-02T03:49:36.921Z,0
2019-02-02T03:50:37.395Z,0
2019-02-02T03:51:37.374Z,0
2019-02-02T03:52:37.362Z,0
2019-02-02T03:53:36.821Z,0
2019-02-02T03:54:37.310Z,0
2019-02-02T03:55:36.803Z,0
2019-02-02T03:56:37.264Z,0
2019-02-02T03:57:36.984Z,0
2019-02-02T03:58:36.750Z,0
2019-02-02T03:59:36.949Z,0
2019-02-02T04:00:36.928Z,0
2019-02-02T04:01:37.535Z,0
2019-02-02T04:02:37.186Z,0
2019-02-02T04:03:36.624Z,0
2019-02-02T04:04:36.862Z,0
2019-02-02T04:05:36.815Z,0
2019-02-02T04:06:37.157Z,0
2019-02-02T04:07:37.016Z,0
2019-02-02T04:08:36.742Z,0
2019-02-02T04:09:36.982Z,0
2019-02-02T04:10:36.198Z,0
2019-02-02T04:11:36.689Z,0
2019-02-02T04:12:36.407Z,0
2019-02-02T04:13:36.640Z,0
2019-02-02T04:14:36.637Z,0
2019-02-02T04:15:36.876Z,0
2019-02-02T04:16:36.634Z,0
2019-02-02T04:17:36.844Z,0
2019-02-02T04:18:36.252Z,0
2019-02-02T04:19:36.501Z,0
2019-02-02T04:20:36.227Z,0
2019-02-02T04:21:36.479Z,0
2019-02-02T04:22:38.271Z,0
2019-02-02T04:23:36.474Z,0
2019-02-02T04:24:36.165Z,0
2019-02-02T04:25:36.651Z,0
2019-02-02T04:26:36.162Z,0
2019-02-02T04:27:36.625Z,0
2019-02-02T04:28:36.296Z,0
2019-02-02T04:29:36.012Z,0
2019-02-02T04:30:36.502Z,0
2019-02-02T04:31:36.231Z,0
2019-02-02T04:32:36.211Z,0
2019-02-02T04:33:35.929Z,0
2019-02-02T04:34:36.416Z,0
2019-02-02T04:35:36.398Z,0
2019-02-02T04:36:35.869Z,0
2019-02-02T04:37:38.131Z,0
2019-02-02T04:38:36.086Z,0
2019-02-02T04:39:35.851Z,0
2019-02-02T04:40:36.068Z,0
2019-02-02T04:41:36.399Z,0
2019-02-02T04:42:36.270Z,0
2019-02-02T04:43:35.472Z,0
2019-02-02T04:44:36.196Z,0
2019-02-02T04:45:35.919Z,0
2019-02-02T04:46:35.894Z,0
2019-02-02T04:47:35.623Z,0
2019-02-02T04:48:37.176Z,0
2019-02-02T04:49:35.840Z,0
2019-02-02T04:50:36.087Z,0
2019-02-02T04:51:36.105Z,0
2019-02-02T04:52:35.509Z,0
2019-02-02T04:53:35.752Z,0
2019-02-02T04:54:35.207Z,0
2019-02-02T04:55:35.698Z,0
2019-02-02T04:56:35.677Z,0
2019-02-02T04:57:35.415Z,0
2019-02-02T04:58:35.502Z,0
2019-02-02T04:59:36.604Z,0
2019-02-02T05:00:35.339Z,0
2019-02-02T05:01:35.576Z,0
2019-02-02T05:02:37.501Z,0
2019-02-02T05:03:35.268Z,0
2019-02-02T05:04:35.242Z,0
2019-02-02T05:05:35.479Z,0
2019-02-02T05:06:35.713Z,0
2019-02-02T05:07:35.444Z,0
2019-02-02T05:08:35.723Z,0
2019-02-02T05:09:35.142Z,0
2019-02-02T05:10:35.373Z,0
2019-02-02T05:11:35.092Z,0
2019-02-02T05:12:35.526Z,0
2019-02-02T05:13:35.548Z,0
2019-02-02T05:14:35.283Z,0
2019-02-02T05:15:35.003Z,0
2019-02-02T05:16:35.243Z,0
2019-02-02T05:17:35.224Z,0
2019-02-02T05:18:35.198Z,0
2019-02-02T05:19:35.181Z,0
2019-02-02T05:20:34.900Z,0
2019-02-02T05:21:35.385Z,0
2019-02-02T05:22:35.105Z,0
2019-02-02T05:23:34.825Z,0
2019-02-02T05:24:34.806Z,0
2019-02-02T05:25:34.784Z,0
2019-02-02T05:26:35.328Z,0
2019-02-02T05:27:35.268Z,0
2019-02-02T05:28:35.236Z,0
2019-02-02T05:29:45.931Z,0
2019-02-02T05:30:35.183Z,0
2019-02-02T05:31:34.909Z,0
2019-02-02T05:32:34.889Z,0
2019-02-02T05:33:34.898Z,0
2019-02-02T05:34:34.906Z,0
2019-02-02T05:35:34.820Z,0
2019-02-02T05:36:34.594Z,0
2019-02-02T05:37:34.779Z,0
2019-02-02T05:38:34.250Z,0
2019-02-02T05:39:35.082Z,0
2019-02-02T05:40:34.457Z,0
2019-02-02T05:41:34.687Z,0
2019-02-02T05:42:34.667Z,0
2019-02-02T05:43:34.898Z,0
2019-02-02T05:44:34.623Z,0
2019-02-02T05:45:34.854Z,0
2019-02-02T05:46:34.352Z,0
2019-02-02T05:47:34.563Z,0
2019-02-02T05:48:34.531Z,0
2019-02-02T05:49:34.524Z,0
2019-02-02T05:50:34.745Z,0
2019-02-02T05:51:34.477Z,0
2019-02-02T05:52:34.450Z,0
2019-02-02T05:53:33.912Z,0
2019-02-02T05:54:34.416Z,0
2019-02-02T05:55:34.377Z,0
2019-02-02T05:56:34.385Z,0
2019-02-02T05:57:34.091Z,0
2019-02-02T05:58:34.324Z,0
2019-02-02T05:59:34.552Z,0
2019-02-02T06:00:34.038Z,0
2019-02-02T06:01:37.092Z,0
2019-02-02T06:02:34.486Z,0
2019-02-02T06:03:33.971Z,0
2019-02-02T06:04:34.181Z,0
2019-02-02T06:05:33.920Z,0
2019-02-02T06:06:34.143Z,0
2019-02-02T06:07:33.869Z,0
2019-02-02T06:08:34.102Z,0
2019-02-02T06:09:34.090Z,0
2019-02-02T06:10:33.803Z,0
2019-02-02T06:11:34.147Z,0
2019-02-02T06:12:33.519Z,0
2019-02-02T06:13:34.276Z,0
2019-02-02T06:14:33.454Z,0
2019-02-02T06:15:36.010Z,0
2019-02-02T06:16:33.675Z,0
2019-02-02T06:17:33.641Z,0
2019-02-02T06:18:33.878Z,0
2019-02-02T06:19:33.848Z,0
2019-02-02T06:20:33.373Z,0
2019-02-02T06:21:34.059Z,0
2019-02-02T06:22:34.193Z,0
2019-02-02T06:23:33.509Z,0
2019-02-02T06:24:34.008Z,0
2019-02-02T06:25:34.047Z,0
2019-02-02T06:26:33.697Z,0
2019-02-02T06:27:33.679Z,0
2019-02-02T06:28:33.404Z,0
2019-02-02T06:29:33.637Z,0
2019-02-02T06:30:33.574Z,0
2019-02-02T06:31:33.593Z,0
2019-02-02T06:32:33.592Z,0
2019-02-02T06:33:33.800Z,0
2019-02-02T06:34:33.791Z,0
2019-02-02T06:35:33.281Z,0
2019-02-02T06:36:34.073Z,0
2019-02-02T06:37:33.208Z,0
2019-02-02T06:38:33.471Z,0
2019-02-02T06:39:33.202Z,0
2019-02-02T06:40:33.389Z,0
2019-02-02T06:41:33.370Z,0
2019-02-02T06:42:33.090Z,0
2019-02-02T06:43:34.974Z,0
2019-02-02T06:44:33.584Z,4
2019-02-02T06:45:33.567Z,4
2019-02-02T06:46:43.173Z,0
2019-02-02T06:47:32.748Z,4
2019-02-02T06:48:32.968Z,4
2019-02-02T06:49:33.198Z,8
2019-02-02T06:50:33.179Z,4
2019-02-02T06:51:32.906Z,8
2019-02-02T06:52:33.393Z,8
2019-02-02T06:53:33.107Z,8
2019-02-02T06:54:37.931Z,12
2019-02-02T06:55:32.808Z,8
2019-02-02T06:56:33.296Z,16
2019-02-02T06:57:33.297Z,16
2019-02-02T06:58:33.004Z,16
2019-02-02T06:59:33.242Z,16
2019-02-02T07:00:33.809Z,20
2019-02-02T07:01:32.952Z,24
2019-02-02T07:02:32.405Z,28
2019-02-02T07:03:32.888Z,32
2019-02-02T07:04:32.870Z,36
2019-02-02T07:05:36.300Z,36
2019-02-02T07:06:32.827Z,40
2019-02-02T07:07:32.792Z,44
2019-02-02T07:08:32.529Z,52
2019-02-02T07:09:33.006Z,56
2019-02-02T07:10:32.732Z,60
2019-02-02T07:11:32.596Z,64
2019-02-02T07:12:32.834Z,72
2019-02-02T07:13:35.765Z,76
2019-02-02T07:14:32.468Z,80
2019-02-02T07:15:32.516Z,92
2019-02-02T07:16:32.709Z,96
2019-02-02T07:17:32.584Z,104
2019-02-02T07:18:32.591Z,116
2019-02-02T07:19:33.872Z,124
2019-02-02T07:20:32.309Z,136
2019-02-02T07:21:32.487Z,148
2019-02-02T07:22:32.213Z,164
2019-02-02T07:23:32.206Z,176
2019-02-02T07:24:32.724Z,192
2019-02-02T07:25:32.174Z,212
2019-02-02T07:26:32.372Z,236
2019-02-02T07:27:32.650Z,264
2019-02-02T07:28:32.591Z,280
2019-02-02T07:29:32.075Z,288
2019-02-02T07:30:52.325Z,308
2019-02-02T07:31:32.635Z,316
2019-02-02T07:32:32.261Z,332
2019-02-02T07:33:32.223Z,352
2019-02-02T07:34:31.692Z,376
2019-02-02T07:35:32.456Z,404
2019-02-02T07:36:31.976Z,436
2019-02-02T07:37:32.468Z,472
2019-02-02T07:38:31.864Z,504
2019-02-02T07:39:31.849Z,528
2019-02-02T07:40:31.813Z,548
2019-02-02T07:41:32.056Z,572
2019-02-02T07:42:32.126Z,600
2019-02-02T07:43:32.273Z,616
2019-02-02T07:44:32.238Z,620
2019-02-02T07:45:32.089Z,628
2019-02-02T07:46:32.405Z,636
2019-02-02T07:47:31.657Z,648
2019-02-02T07:48:31.656Z,656
2019-02-02T07:49:32.209Z,664
2019-02-02T07:50:32.110Z,672
2019-02-02T07:51:31.971Z,680
2019-02-02T07:52:31.801Z,688
2019-02-02T07:53:31.524Z,704
2019-02-02T07:54:33.104Z,724
2019-02-02T07:55:31.771Z,756
2019-02-02T07:56:31.718Z,792
2019-02-02T07:57:31.690Z,848
2019-02-02T07:58:31.920Z,896
2019-02-02T07:59:31.399Z,928
2019-02-02T08:00:42.842Z,944
2019-02-02T08:01:31.683Z,952
2019-02-02T08:02:31.608Z,960
2019-02-02T08:03:31.826Z,984
2019-02-02T08:04:31.811Z,1012
2019-02-02T08:05:31.794Z,1044
2019-02-02T08:06:31.748Z,1060
2019-02-02T08:07:31.473Z,1064
2019-02-02T08:08:31.828Z,1068
2019-02-02T08:09:31.682Z,1100
2019-02-02T08:10:31.157Z,1160
2019-02-02T08:11:31.685Z,1240
2019-02-02T08:12:31.361Z,1312
2019-02-02T08:13:31.090Z,1372
2019-02-02T08:14:31.583Z,1428
2019-02-02T08:15:31.576Z,1468
2019-02-02T08:16:31.288Z,1504
2019-02-02T08:17:34.827Z,1536
2019-02-02T08:18:31.482Z,1572
2019-02-02T08:19:32.793Z,1608
2019-02-02T08:20:31.207Z,1604
2019-02-02T08:21:31.430Z,1600
2019-02-02T08:22:30.893Z,1624
2019-02-02T08:23:31.123Z,1680
2019-02-02T08:24:31.125Z,1748
2019-02-02T08:25:31.087Z,1816
2019-02-02T08:26:31.313Z,1872
2019-02-02T08:27:30.829Z,1932
2019-02-02T08:28:31.267Z,2024
2019-02-02T08:29:30.731Z,2096
2019-02-02T08:30:30.878Z,2104
2019-02-02T08:31:31.288Z,2104
2019-02-02T08:32:31.184Z,2124
2019-02-02T08:33:30.984Z,2144
2019-02-02T08:34:30.669Z,2164
2019-02-02T08:35:30.870Z,2164
2019-02-02T08:36:31.089Z,2156
2019-02-02T08:37:30.813Z,2148
2019-02-02T08:38:31.117Z,2160
2019-02-02T08:39:36.656Z,2176
2019-02-02T08:40:30.849Z,2180
2019-02-02T08:41:30.981Z,2172
2019-02-02T08:42:30.700Z,2148
2019-02-02T08:43:30.681Z,2116
2019-02-02T08:44:31.784Z,2100
2019-02-02T08:45:30.382Z,2084
2019-02-02T08:46:30.624Z,2048
2019-02-02T08:47:32.603Z,2008
2019-02-02T08:48:30.843Z,1968
2019-02-02T08:49:30.038Z,1948
2019-02-02T08:50:30.560Z,1932
2019-02-02T08:51:30.510Z,1928
2019-02-02T08:52:30.864Z,1936
2019-02-02T08:53:30.992Z,1944
2019-02-02T08:54:30.255Z,1972
2019-02-02T08:55:30.864Z,2000
2019-02-02T08:56:30.861Z,2040
2019-02-02T08:57:30.740Z,2084
2019-02-02T08:58:30.553Z,2132
2019-02-02T08:59:30.333Z,2188
2019-02-02T09:00:30.081Z,2236
2019-02-02T09:01:30.289Z,2296
2019-02-02T09:02:30.292Z,2360
2019-02-02T09:03:30.653Z,2440
2019-02-02T09:04:30.327Z,2516
2019-02-02T09:05:30.370Z,2592
2019-02-02T09:06:41.163Z,2636
2019-02-02T09:07:29.917Z,2596
2019-02-02T09:08:30.554Z,2500
2019-02-02T09:09:30.377Z,2388
2019-02-02T09:10:30.364Z,2288
2019-02-02T09:11:29.574Z,2220
2019-02-02T09:12:30.074Z,2184
2019-02-02T09:13:30.590Z,2196
2019-02-02T09:14:30.269Z,2232
2019-02-02T09:15:30.343Z,2296
2019-02-02T09:16:29.977Z,2352
2019-02-02T09:17:29.940Z,2376
2019-02-02T09:18:29.676Z,2372
2019-02-02T09:19:30.011Z,2344
2019-02-02T09:20:29.877Z,2320
2019-02-02T09:21:29.873Z,2316
2019-02-02T09:22:29.881Z,2356
2019-02-02T09:23:29.819Z,2424
2019-02-02T09:24:29.791Z,2516
2019-02-02T09:25:29.779Z,2636
2019-02-02T09:26:29.748Z,2752
2019-02-02T09:27:29.994Z,2848
2019-02-02T09:28:29.810Z,2896
2019-02-02T09:29:29.713Z,2892
2019-02-02T09:30:29.926Z,2860
2019-02-02T09:31:29.647Z,2828
2019-02-02T09:32:29.714Z,2820
2019-02-02T09:33:29.656Z,2864
2019-02-02T09:34:31.415Z,2940
2019-02-02T09:35:29.571Z,3040
2019-02-02T09:36:29.809Z,3168
2019-02-02T09:37:29.315Z,3308
2019-02-02T09:38:29.494Z,3436
2019-02-02T09:39:29.476Z,3512
2019-02-02T09:40:32.578Z,3540
2019-02-02T09:41:29.438Z,3532
2019-02-02T09:42:29.417Z,3488
2019-02-02T09:43:29.649Z,3436
2019-02-02T09:44:29.383Z,3400
2019-02-02T09:45:29.393Z,3388
2019-02-02T09:46:29.587Z,3396
2019-02-02T09:47:29.313Z,3436
2019-02-02T09:48:29.280Z,3560
2019-02-02T09:49:29.514Z,3800
2019-02-02T09:50:29.234Z,4072
2019-02-02T09:51:29.211Z,4236
2019-02-02T09:52:28.945Z,4248
2019-02-02T09:53:29.172Z,4128
2019-02-02T09:54:33.595Z,3956
2019-02-02T09:55:29.140Z,3832
2019-02-02T09:56:29.394Z,3696
2019-02-02T09:57:32.569Z,3612
2019-02-02T09:58:28.813Z,3568
2019-02-02T09:59:29.331Z,3496
2019-02-02T10:00:28.534Z,3404
2019-02-02T10:01:34.768Z,3296
2019-02-02T10:02:31.699Z,3200
2019-02-02T10:03:29.215Z,3148
2019-02-02T10:04:28.933Z,3168
2019-02-02T10:05:29.226Z,3272
2019-02-02T10:06:28.672Z,3428
2019-02-02T10:07:29.193Z,3604
2019-02-02T10:08:30.749Z,3728
2019-02-02T10:09:29.152Z,3812
2019-02-02T10:10:29.068Z,3876
2019-02-02T10:11:28.797Z,3932
2019-02-02T10:12:29.023Z,3968
2019-02-02T10:13:28.745Z,3984
2019-02-02T10:14:29.031Z,4008
2019-02-02T10:15:28.967Z,4040
2019-02-02T10:16:28.681Z,4076
2019-02-02T10:17:28.426Z,4128
2019-02-02T10:18:28.648Z,4196
2019-02-02T10:19:28.709Z,4288
2019-02-02T10:20:28.472Z,4420
2019-02-02T10:21:28.573Z,4592
2019-02-02T10:22:28.601Z,4724
2019-02-02T10:23:28.552Z,4760
2019-02-02T10:24:30.803Z,4712
2019-02-02T10:25:28.241Z,4684
2019-02-02T10:26:28.480Z,4704
2019-02-02T10:27:28.460Z,4724
2019-02-02T10:28:28.440Z,4708
2019-02-02T10:29:28.396Z,4668
2019-02-02T10:30:29.919Z,4592
2019-02-02T10:31:38.728Z,4524
2019-02-02T10:32:28.342Z,4476
2019-02-02T10:33:28.346Z,4492
2019-02-02T10:34:28.068Z,4516
2019-02-02T10:35:28.624Z,4516
2019-02-02T10:36:28.280Z,4472
2019-02-02T10:37:28.496Z,4408
2019-02-02T10:38:28.206Z,4320
2019-02-02T10:39:27.951Z,4176
2019-02-02T10:40:29.980Z,3944
2019-02-02T10:41:28.156Z,3688
2019-02-02T10:42:28.129Z,3476
2019-02-02T10:43:28.122Z,3372
2019-02-02T10:44:28.095Z,3376
2019-02-02T10:45:28.359Z,3464
2019-02-02T10:46:27.803Z,3576
2019-02-02T10:47:27.792Z,3772
2019-02-02T10:48:28.267Z,4012
2019-02-02T10:49:27.539Z,4252
2019-02-02T10:50:28.303Z,4480
2019-02-02T10:51:30.387Z,4544
2019-02-02T10:52:27.922Z,4524
2019-02-02T10:53:28.385Z,4380
2019-02-02T10:54:27.880Z,4192
2019-02-02T10:55:27.943Z,3956
2019-02-02T10:56:28.105Z,3748
2019-02-02T10:57:27.827Z,3592
2019-02-02T10:58:28.074Z,3524
2019-02-02T10:59:27.790Z,3508
2019-02-02T11:00:28.062Z,3548
2019-02-02T11:01:27.770Z,3588
2019-02-02T11:02:27.718Z,3636
2019-02-02T11:03:27.974Z,3728
2019-02-02T11:04:27.636Z,3824
2019-02-02T11:05:27.984Z,3972
2019-02-02T11:06:27.918Z,4100
2019-02-02T11:07:28.315Z,4188
2019-02-02T11:08:27.871Z,4304
2019-02-02T11:09:28.177Z,4332
2019-02-02T11:10:28.102Z,4340
2019-02-02T11:11:28.085Z,4388
2019-02-02T11:12:27.778Z,4416
2019-02-02T11:13:27.955Z,4392
2019-02-02T11:14:28.109Z,4328
2019-02-02T11:15:27.292Z,4244
2019-02-02T11:16:27.658Z,4212
2019-02-02T11:17:27.273Z,4184
2019-02-02T11:18:28.150Z,4136
2019-02-02T11:19:27.638Z,4116
2019-02-02T11:20:27.741Z,4076
2019-02-02T11:21:27.686Z,4148
2019-02-02T11:22:27.942Z,4200
2019-02-02T11:23:27.459Z,4224
2019-02-02T11:24:27.378Z,4216
2019-02-02T11:25:27.069Z,4244
2019-02-02T11:26:27.747Z,4232
2019-02-02T11:27:27.854Z,4436
2019-02-02T11:28:26.902Z,4572
2019-02-02T11:29:28.018Z,4652
2019-02-02T11:30:27.315Z,4744
2019-02-02T11:31:26.855Z,4776
2019-02-02T11:32:27.094Z,4696
2019-02-02T11:33:27.100Z,4500
2019-02-02T11:34:27.054Z,4396
2019-02-02T11:35:27.083Z,4164
2019-02-02T11:36:27.092Z,3912
2019-02-02T11:37:26.735Z,3732
2019-02-02T11:38:26.956Z,3644
2019-02-02T11:39:26.947Z,3556
2019-02-02T11:40:26.672Z,3568
2019-02-02T11:41:26.652Z,3520
2019-02-02T11:42:27.131Z,3572
2019-02-02T11:43:26.608Z,3660
2019-02-02T11:44:27.431Z,3672
2019-02-02T11:45:26.823Z,3648
2019-02-02T11:46:26.564Z,3596
2019-02-02T11:47:27.058Z,3536
2019-02-02T11:48:26.768Z,3472
2019-02-02T11:49:28.663Z,3440
2019-02-02T11:50:26.733Z,3388
2019-02-02T11:51:26.248Z,3364
2019-02-02T11:52:29.400Z,3440
2019-02-02T11:53:26.655Z,3468
2019-02-02T11:54:26.124Z,3420
2019-02-02T11:55:26.357Z,3304
2019-02-02T11:56:26.847Z,3180
2019-02-02T11:57:26.317Z,3224
2019-02-02T11:58:26.813Z,3252
2019-02-02T11:59:26.811Z,3300
2019-02-02T12:00:26.260Z,3248
2019-02-02T12:01:26.742Z,3044
2019-02-02T12:02:26.471Z,2960
2019-02-02T12:03:26.452Z,2988
2019-02-02T12:04:26.448Z,2984
2019-02-02T12:05:26.482Z,2824
2019-02-02T12:06:26.186Z,2880
2019-02-02T12:07:25.863Z,3112
2019-02-02T12:08:26.602Z,3028
2019-02-02T12:09:26.281Z,3068
2019-02-02T12:10:26.559Z,3092
2019-02-02T12:11:26.026Z,3048
2019-02-02T12:12:26.265Z,3048
2019-02-02T12:13:26.247Z,3132
2019-02-02T12:14:26.246Z,3120
2019-02-02T12:15:26.462Z,3004
2019-02-02T12:16:26.433Z,2952
2019-02-02T12:17:26.464Z,2984
2019-02-02T12:18:25.920Z,3040
2019-02-02T12:19:26.153Z,3108
2019-02-02T12:20:26.119Z,3124
2019-02-02T12:21:26.073Z,3160
2019-02-02T12:22:25.558Z,3100
2019-02-02T12:23:26.041Z,3104
2019-02-02T12:24:25.511Z,2984
2019-02-02T12:25:25.738Z,2932
2019-02-02T12:26:26.005Z,2880
2019-02-02T12:27:25.723Z,2892
2019-02-02T12:28:25.993Z,2908
2019-02-02T12:29:25.922Z,2952
2019-02-02T12:30:26.148Z,3108
2019-02-02T12:31:26.137Z,3176
2019-02-02T12:32:33.333Z,3232
2019-02-02T12:33:28.417Z,3264
2019-02-02T12:34:26.062Z,3280
2019-02-02T12:35:25.799Z,3344
2019-02-02T12:36:25.781Z,3480
2019-02-02T12:37:25.533Z,3600
2019-02-02T12:38:25.506Z,3756
2019-02-02T12:39:25.579Z,3908
2019-02-02T12:40:25.932Z,4060
2019-02-02T12:41:25.431Z,4180
2019-02-02T12:42:25.642Z,4228
2019-02-02T12:43:25.393Z,4292
2019-02-02T12:44:25.355Z,4364
2019-02-02T12:45:25.823Z,4516
2019-02-02T12:46:25.810Z,4644
2019-02-02T12:47:27.880Z,4652
2019-02-02T12:48:25.292Z,4576
2019-02-02T12:49:25.530Z,4524
2019-02-02T12:50:25.727Z,4484
2019-02-02T12:51:25.455Z,4500
2019-02-02T12:52:27.732Z,4444
2019-02-02T12:53:25.665Z,4420
2019-02-02T12:54:25.645Z,4400
2019-02-02T12:55:28.335Z,4368
2019-02-02T12:56:25.604Z,4356
2019-02-02T12:57:25.323Z,4248
2019-02-02T12:58:25.566Z,4076
2019-02-02T12:59:25.317Z,3936
2019-02-02T13:00:25.596Z,3736
2019-02-02T13:01:25.508Z,3644
2019-02-02T13:02:37.737Z,3856
2019-02-02T13:03:25.203Z,3948
2019-02-02T13:04:24.921Z,3924
2019-02-02T13:05:25.161Z,3824
2019-02-02T13:06:24.881Z,3956
2019-02-02T13:07:25.131Z,3952
2019-02-02T13:08:25.119Z,4080
2019-02-02T13:09:25.366Z,3880
2019-02-02T13:10:26.763Z,4008
2019-02-02T13:11:26.487Z,3900
2019-02-02T13:12:25.114Z,3788
2019-02-02T13:13:24.990Z,3696
2019-02-02T13:14:24.720Z,3420
2019-02-02T13:15:25.036Z,3512
2019-02-02T13:16:25.203Z,3172
2019-02-02T13:17:25.181Z,3224
2019-02-02T13:18:25.070Z,3220
2019-02-02T13:19:25.131Z,3008
2019-02-02T13:20:24.982Z,3128
2019-02-02T13:21:25.082Z,3248
2019-02-02T13:22:24.811Z,2984
2019-02-02T13:23:24.528Z,3084
2019-02-02T13:24:24.796Z,2780
2019-02-02T13:25:24.247Z,2796
2019-02-02T13:26:24.469Z,2748
2019-02-02T13:27:24.944Z,2736
2019-02-02T13:28:25.048Z,2660
2019-02-02T13:29:24.649Z,2660
2019-02-02T13:30:24.891Z,2480
2019-02-02T13:31:28.334Z,2516
2019-02-02T13:32:24.332Z,2564
2019-02-02T13:33:24.669Z,2420
2019-02-02T13:34:24.563Z,2356
2019-02-02T13:35:24.539Z,2340
2019-02-02T13:36:24.769Z,2316
2019-02-02T13:37:24.825Z,2200
2019-02-02T13:38:24.586Z,2172
2019-02-02T13:39:24.443Z,2120
2019-02-02T13:40:24.439Z,2060
2019-02-02T13:41:24.432Z,2016
2019-02-02T13:42:24.652Z,1908
2019-02-02T13:43:24.621Z,2036
2019-02-02T13:44:24.114Z,2016
2019-02-02T13:45:24.064Z,2052
2019-02-02T13:46:24.291Z,2028
2019-02-02T13:47:24.018Z,1908
2019-02-02T13:48:24.611Z,2116
2019-02-02T13:49:24.294Z,2084
2019-02-02T13:50:24.615Z,2092
2019-02-02T13:51:23.677Z,2216
2019-02-02T13:52:24.184Z,2252
2019-02-02T13:53:24.169Z,2264
2019-02-02T13:54:24.436Z,2244
2019-02-02T13:55:23.874Z,2372
2019-02-02T13:56:24.082Z,2256
2019-02-02T13:57:24.059Z,2216
2019-02-02T13:58:24.040Z,2096
2019-02-02T13:59:23.805Z,2052
2019-02-02T14:00:23.742Z,1988
2019-02-02T14:01:23.968Z,1892
2019-02-02T14:02:24.598Z,1860
2019-02-02T14:03:23.696Z,1720